createdAt,value
2022-12-28T00:01:41.475Z,15.50
2022-12-28T00:04:08.455Z,19.70
2022-12-28T00:06:35.348Z,18.23
2022-12-28T00:09:02.568Z,15.75
2022-12-28T00:11:31.241Z,14.82
2022-12-28T00:14:00.315Z,15.60
2022-12-28T00:16:33.486Z,13.95
2022-12-28T00:19:02.787Z,14.40
2022-12-28T00:21:30.890Z,16.77
2022-12-28T00:23:59.884Z,22.52
2022-12-28T00:26:29.526Z,23.08
2022-12-28T00:29:03.626Z,22.73
2022-12-28T00:31:31.977Z,22.27
2022-12-28T00:33:58.964Z,22.85
2022-12-28T00:37:09.949Z,23.55
2022-12-28T00:39:12.849Z,22.52
2022-12-28T00:41:39.767Z,19.85
2022-12-28T00:44:06.756Z,21.83
2022-12-28T00:46:33.697Z,22.67
2022-12-28T00:49:00.710Z,23.25
2022-12-28T00:51:27.812Z,22.45
2022-12-28T00:53:54.866Z,20.23
2022-12-28T00:56:24.444Z,21.40
2022-12-28T00:58:55.751Z,21.08
2022-12-28T01:01:24.288Z,20.35
2022-12-28T01:03:51.951Z,19.35
2022-12-28T01:06:20.193Z,21.45
2022-12-28T01:08:47.550Z,20.63
2022-12-28T01:11:24.953Z,18.90
2022-12-28T01:13:53.515Z,20.50
2022-12-28T01:16:23.741Z,18.50
2022-12-28T01:18:56.236Z,16.67
2022-12-28T01:21:25.888Z,18.37
2022-12-28T01:23:57.725Z,13.07
2022-12-28T01:26:24.848Z,13.32
2022-12-28T01:28:52.132Z,14.05
2022-12-28T01:31:21.178Z,14.73
2022-12-28T01:33:48.483Z,15.20
2022-12-28T01:36:18.642Z,13.70
2022-12-28T01:38:46.913Z,15.20
2022-12-28T01:41:18.955Z,16.13
2022-12-28T01:44:08.857Z,16.27
2022-12-28T01:46:50.376Z,15.87
2022-12-28T01:49:26.771Z,15.85
2022-12-28T01:52:08.525Z,16.95
2022-12-28T01:55:09.247Z,16.42
2022-12-28T01:57:53.798Z,14.95
2022-12-28T02:00:20.926Z,14.73
2022-12-28T02:02:56.960Z,16.77
2022-12-28T02:05:29.777Z,16.98
2022-12-28T02:08:35.559Z,18.17
2022-12-28T02:11:02.744Z,18.15
2022-12-28T02:13:29.973Z,17.23
2022-12-28T02:15:58.401Z,17.23
2022-12-28T02:18:26.000Z,13.98
2022-12-28T02:21:16.560Z,14.65
2022-12-28T02:23:46.345Z,11.25
2022-12-28T02:26:46.342Z,13.80
2022-12-28T02:29:27.187Z,16.98
2022-12-28T02:31:54.086Z,22.67
2022-12-28T02:34:47.929Z,23.88
2022-12-28T02:37:25.017Z,23.38
2022-12-28T02:40:10.110Z,22.93
2022-12-28T02:42:38.347Z,24.63
2022-12-28T02:45:06.182Z,24.20
2022-12-28T02:47:33.016Z,22.73
2022-12-28T02:50:03.931Z,21.52
2022-12-28T02:53:07.900Z,19.80
2022-12-28T02:55:53.336Z,16.58
2022-12-28T02:58:41.469Z,17.17
2022-12-28T03:01:52.312Z,17.38
2022-12-28T03:04:30.757Z,17.83
2022-12-28T03:07:13.027Z,17.50
2022-12-28T03:10:05.352Z,19.48
2022-12-28T03:13:07.657Z,20.95
2022-12-28T03:15:37.369Z,20.77
2022-12-28T03:18:17.202Z,16.00
2022-12-28T03:20:46.018Z,15.60
2022-12-28T03:23:17.062Z,14.95
2022-12-28T03:25:47.158Z,10.38
2022-12-28T03:28:18.072Z,13.85
2022-12-28T03:30:48.127Z,16.40
2022-12-28T03:33:15.700Z,17.17
2022-12-28T03:36:00.917Z,12.93
2022-12-28T03:38:48.864Z,11.88
2022-12-28T03:41:25.004Z,16.15
2022-12-28T03:43:57.500Z,17.27
2022-12-28T03:46:47.645Z,19.57
2022-12-28T03:49:15.039Z,19.85
2022-12-28T03:51:43.249Z,19.80
2022-12-28T03:54:12.972Z,16.15
2022-12-28T03:56:49.893Z,16.60
2022-12-28T03:59:17.707Z,16.27
2022-12-28T04:01:45.149Z,14.80
2022-12-28T04:04:12.388Z,14.93
2022-12-28T04:06:39.691Z,14.68
2022-12-28T04:09:07.984Z,14.40
2022-12-28T04:11:34.875Z,15.13
2022-12-28T04:14:10.319Z,13.77
2022-12-28T04:16:38.236Z,13.48
2022-12-28T04:19:05.209Z,11.55
2022-12-28T04:21:32.076Z,12.70
2022-12-28T04:23:59.014Z,9.63
2022-12-28T04:26:26.130Z,11.32
2022-12-28T04:28:53.145Z,9.43
2022-12-28T04:31:20.135Z,8.85
2022-12-28T04:33:47.129Z,8.82
2022-12-28T04:36:16.376Z,8.67
2022-12-28T04:38:43.366Z,11.13
2022-12-28T04:41:11.823Z,14.70
2022-12-28T04:43:39.518Z,11.82
2022-12-28T04:46:11.366Z,11.85
2022-12-28T04:48:38.611Z,11.03
2022-12-28T04:51:10.989Z,10.75
2022-12-28T04:53:39.279Z,11.45
2022-12-28T04:56:08.152Z,12.57
2022-12-28T04:58:36.224Z,20.52
2022-12-28T05:01:09.517Z,14.07
2022-12-28T05:03:37.808Z,15.20
2022-12-28T05:06:12.021Z,23.88
2022-12-28T05:08:39.714Z,14.30
2022-12-28T05:11:08.959Z,13.02
2022-12-28T05:13:36.033Z,12.30
2022-12-28T05:16:04.631Z,12.52
2022-12-28T05:18:31.699Z,15.02
2022-12-28T05:21:00.923Z,14.18
2022-12-28T05:23:29.766Z,16.38
2022-12-28T05:25:57.398Z,15.50
2022-12-28T05:28:25.559Z,15.45
2022-12-28T05:30:53.534Z,14.43
2022-12-28T05:33:20.401Z,13.05
2022-12-28T05:35:47.303Z,14.68
2022-12-28T05:38:14.122Z,13.50
2022-12-28T05:40:41.159Z,11.73
2022-12-28T05:43:08.233Z,12.55
2022-12-28T05:45:35.667Z,13.57
2022-12-28T05:48:02.601Z,12.18
2022-12-28T05:50:29.566Z,13.90
2022-12-28T05:52:56.570Z,15.95
2022-12-28T05:55:23.358Z,14.35
2022-12-28T05:57:50.208Z,15.93
2022-12-28T06:00:17.283Z,16.27
2022-12-28T06:02:44.322Z,18.20
2022-12-28T06:05:11.202Z,15.55
2022-12-28T06:07:38.263Z,15.38
2022-12-28T06:10:05.576Z,16.98
2022-12-28T06:12:32.469Z,17.25
2022-12-28T06:14:59.546Z,19.67
2022-12-28T06:17:26.364Z,21.85
2022-12-28T06:19:53.313Z,19.73
2022-12-28T06:22:20.195Z,19.45
2022-12-28T06:24:47.251Z,20.48
2022-12-28T06:27:14.041Z,20.73
2022-12-28T06:29:41.092Z,19.27
2022-12-28T06:32:08.089Z,20.35
2022-12-28T06:34:35.020Z,19.58
2022-12-28T06:37:01.923Z,20.33
2022-12-28T06:39:28.951Z,19.97
2022-12-28T06:41:55.806Z,18.33
2022-12-28T06:44:22.669Z,14.95
2022-12-28T06:46:49.573Z,13.80
2022-12-28T06:49:16.506Z,14.98
2022-12-28T06:51:43.443Z,11.60
2022-12-28T06:54:11.135Z,14.50
2022-12-28T06:56:38.576Z,13.10
2022-12-28T06:59:06.183Z,15.43
2022-12-28T07:01:36.128Z,17.77
2022-12-28T07:04:04.932Z,17.77
2022-12-28T07:06:38.139Z,19.15
2022-12-28T07:09:08.605Z,21.70
2022-12-28T07:11:36.116Z,19.77
2022-12-28T07:14:03.376Z,21.17
2022-12-28T07:18:58.219Z,21.92
2022-12-28T07:21:43.291Z,24.08
2022-12-28T07:24:10.251Z,24.42
2022-12-28T07:26:38.316Z,24.48
2022-12-28T07:29:07.241Z,24.00
2022-12-28T07:31:41.956Z,24.40
2022-12-28T07:34:11.948Z,24.77
2022-12-28T07:36:38.891Z,23.77
2022-12-28T07:39:05.831Z,25.17
2022-12-28T07:41:33.919Z,27.37
2022-12-28T07:44:01.465Z,28.08
2022-12-28T07:46:33.873Z,29.33
2022-12-28T07:49:01.024Z,30.05
2022-12-28T07:51:32.891Z,30.10
2022-12-28T07:54:00.809Z,30.73
2022-12-28T07:56:29.789Z,30.58
2022-12-28T07:58:59.230Z,29.48
2022-12-28T08:01:29.691Z,28.90
2022-12-28T08:03:59.027Z,31.48
2022-12-28T08:06:27.326Z,38.97
2022-12-28T08:08:58.212Z,29.58
2022-12-28T08:11:28.169Z,38.78
2022-12-28T08:13:56.155Z,35.88
2022-12-28T08:16:25.052Z,21.70
2022-12-28T08:18:52.026Z,22.97
2022-12-28T08:21:30.436Z,21.92
2022-12-28T08:23:58.077Z,20.30
2022-12-28T08:26:30.815Z,21.88
2022-12-28T08:29:00.035Z,21.42
2022-12-28T08:31:35.812Z,22.93
2022-12-28T08:34:04.868Z,22.38
2022-12-28T08:36:32.625Z,21.67
2022-12-28T08:39:00.613Z,19.85
2022-12-28T08:41:29.093Z,20.88
2022-12-28T08:43:56.760Z,17.83
2022-12-28T08:46:29.649Z,16.83
2022-12-28T08:48:58.945Z,16.90
2022-12-28T08:51:28.374Z,16.25
2022-12-28T08:53:55.351Z,16.88
2022-12-28T08:56:27.550Z,15.73
2022-12-28T08:58:55.638Z,15.00
2022-12-28T09:01:23.449Z,16.08
2022-12-28T09:03:53.365Z,16.13
2022-12-28T09:06:26.555Z,15.15
2022-12-28T09:09:10.808Z,15.57
2022-12-28T09:11:39.169Z,15.75
2022-12-28T09:14:09.383Z,15.50
2022-12-28T09:16:37.689Z,16.25
2022-12-28T09:19:06.933Z,19.10
2022-12-28T09:21:36.710Z,16.50
2022-12-28T09:24:04.197Z,18.80
2022-12-28T09:26:34.389Z,24.83
2022-12-28T09:29:03.944Z,30.80
2022-12-28T09:31:33.390Z,30.45
2022-12-28T09:36:47.486Z,28.60
2022-12-28T09:39:19.768Z,27.73
2022-12-28T09:42:03.322Z,26.90
2022-12-28T09:44:34.823Z,27.55
2022-12-28T09:47:01.629Z,26.83
2022-12-28T09:49:38.666Z,23.35
2022-12-28T09:52:14.646Z,28.20
2022-12-28T09:54:42.386Z,29.52
2022-12-28T09:57:18.309Z,27.23
2022-12-28T09:59:48.073Z,27.13
2022-12-28T10:02:36.240Z,34.97
2022-12-28T10:05:03.259Z,32.53
2022-12-28T10:07:30.176Z,33.63
2022-12-28T10:09:57.081Z,31.90
2022-12-28T10:12:23.991Z,30.17
2022-12-28T10:14:53.599Z,28.52
2022-12-28T10:17:27.225Z,28.80
2022-12-28T10:19:58.199Z,27.17
2022-12-28T10:22:38.324Z,25.77
2022-12-28T10:25:17.068Z,22.90
2022-12-28T10:27:44.497Z,20.98
2022-12-28T10:30:20.435Z,19.15
2022-12-28T10:33:06.325Z,17.65
2022-12-28T10:35:50.205Z,17.95
2022-12-28T10:38:23.733Z,18.47
2022-12-28T10:41:14.931Z,18.35
2022-12-28T10:44:21.451Z,19.75
2022-12-28T10:46:52.351Z,16.70
2022-12-28T10:49:20.937Z,18.08
2022-12-28T10:52:15.459Z,17.13
2022-12-28T10:54:43.170Z,17.80
2022-12-28T10:57:20.173Z,19.45
2022-12-28T10:59:47.630Z,18.67
2022-12-28T11:02:24.838Z,18.80
2022-12-28T11:05:01.218Z,17.13
2022-12-28T11:07:36.942Z,17.33
2022-12-28T11:10:21.989Z,18.60
2022-12-28T11:12:49.179Z,16.80
2022-12-28T11:15:22.173Z,18.10
2022-12-28T11:18:01.386Z,15.63
2022-12-28T11:20:35.135Z,16.77
2022-12-28T11:23:06.057Z,16.58
2022-12-28T11:25:34.750Z,16.98
2022-12-28T11:28:08.816Z,16.90
2022-12-28T11:30:35.781Z,17.50
2022-12-28T11:33:04.250Z,17.33
2022-12-28T11:35:38.993Z,16.00
2022-12-28T11:38:07.561Z,15.65
2022-12-28T11:40:43.752Z,15.68
2022-12-28T11:43:31.625Z,16.07
2022-12-28T11:46:05.739Z,16.45
2022-12-28T11:48:44.391Z,16.33
2022-12-28T11:51:18.603Z,16.45
2022-12-28T11:53:45.365Z,16.27
2022-12-28T11:56:14.149Z,15.77
2022-12-28T11:58:41.042Z,16.00
2022-12-28T12:01:12.120Z,17.23
2022-12-28T12:03:57.424Z,15.77
2022-12-28T12:06:42.588Z,15.88
2022-12-28T12:09:21.559Z,16.60
2022-12-28T12:11:49.424Z,15.50
2022-12-28T12:14:22.444Z,15.00
2022-12-28T12:17:14.912Z,15.50
2022-12-28T12:19:48.467Z,15.07
2022-12-28T12:22:30.005Z,15.00
2022-12-28T12:25:02.192Z,16.80
2022-12-28T12:27:41.937Z,16.02
2022-12-28T12:30:17.860Z,15.57
2022-12-28T12:32:46.617Z,14.43
2022-12-28T12:35:38.719Z,15.50
2022-12-28T12:38:11.417Z,15.80
2022-12-28T12:40:44.088Z,17.10
2022-12-28T12:43:32.825Z,17.20
2022-12-28T12:46:27.014Z,16.38
2022-12-28T12:49:15.022Z,16.60
2022-12-28T12:52:04.237Z,15.90
2022-12-28T12:54:47.493Z,16.90
2022-12-28T12:57:21.393Z,15.10
2022-12-28T12:59:48.206Z,14.93
2022-12-28T13:02:40.488Z,14.97
2022-12-28T13:05:14.801Z,15.05
2022-12-28T13:07:41.754Z,14.88
2022-12-28T13:10:16.987Z,14.77
2022-12-28T13:12:44.152Z,14.20
2022-12-28T13:15:18.799Z,13.83
2022-12-28T13:18:42.825Z,14.55
2022-12-28T13:20:54.596Z,15.02
2022-12-28T13:23:23.492Z,16.00
2022-12-28T13:25:59.251Z,15.63
2022-12-28T13:28:30.771Z,15.17
2022-12-28T13:31:21.913Z,16.75
2022-12-28T13:33:56.698Z,15.38
2022-12-28T13:36:23.543Z,12.30
2022-12-28T13:39:04.591Z,17.27
2022-12-28T13:41:34.202Z,17.47
2022-12-28T13:44:13.408Z,17.45
2022-12-28T13:46:43.899Z,17.65
2022-12-28T13:49:12.696Z,12.60
2022-12-28T13:51:41.362Z,13.50
2022-12-28T13:54:09.730Z,13.40
2022-12-28T13:56:39.731Z,13.98
2022-12-28T13:59:14.396Z,10.80
2022-12-28T14:01:44.735Z,10.73
2022-12-28T14:04:51.361Z,9.55
2022-12-28T14:07:02.293Z,7.50
2022-12-28T14:09:29.979Z,8.68
2022-12-28T14:11:57.082Z,7.45
2022-12-28T14:14:24.589Z,8.10
2022-12-28T14:16:51.712Z,8.32
2022-12-28T14:19:19.025Z,7.53
2022-12-28T14:21:46.034Z,7.20
2022-12-28T14:24:15.578Z,6.57
2022-12-28T14:26:55.502Z,6.70
2022-12-28T14:29:31.366Z,6.80
2022-12-28T14:32:00.226Z,7.50
2022-12-28T14:34:30.226Z,7.15
2022-12-28T14:36:58.837Z,7.07
2022-12-28T14:39:25.664Z,6.60
2022-12-28T14:41:53.724Z,6.82
2022-12-28T14:44:27.925Z,7.20
2022-12-28T14:46:55.462Z,9.30
2022-12-28T14:49:28.548Z,8.45
2022-12-28T14:52:18.253Z,7.55
2022-12-28T14:54:50.035Z,6.88
2022-12-28T14:57:20.027Z,7.00
2022-12-28T14:59:55.369Z,6.75
2022-12-28T15:02:34.852Z,6.40
2022-12-28T15:05:02.694Z,6.45
2022-12-28T15:07:31.726Z,6.57
2022-12-28T15:09:58.689Z,6.13
2022-12-28T15:12:25.613Z,7.05
2022-12-28T15:14:52.471Z,7.20
2022-12-28T15:17:19.447Z,7.25
2022-12-28T15:19:46.378Z,7.63
2022-12-28T15:22:14.847Z,6.60
2022-12-28T15:24:41.860Z,7.85
2022-12-28T15:27:08.889Z,7.80
2022-12-28T15:32:24.497Z,7.10
2022-12-28T15:34:51.357Z,7.30
2022-12-28T15:37:18.391Z,8.60
2022-12-28T15:39:45.256Z,6.88
2022-12-28T15:42:12.271Z,8.48
2022-12-28T15:44:39.163Z,6.50
2022-12-28T15:47:06.143Z,6.90
2022-12-28T15:49:33.105Z,7.45
2022-12-28T15:52:00.068Z,6.70
2022-12-28T15:54:27.041Z,6.40
2022-12-28T15:56:55.975Z,6.93
2022-12-28T15:59:22.799Z,7.03
2022-12-28T16:01:49.943Z,7.18
2022-12-28T16:04:16.992Z,6.55
2022-12-28T16:06:45.208Z,7.80
2022-12-28T16:09:13.751Z,8.02
2022-12-28T16:11:41.940Z,6.50
2022-12-28T16:14:15.224Z,7.30
2022-12-28T16:16:43.378Z,8.65
2022-12-28T16:19:16.242Z,7.32
2022-12-28T16:21:43.502Z,7.53
2022-12-28T16:24:11.089Z,8.10
2022-12-28T16:26:38.090Z,8.27
2022-12-28T16:29:04.966Z,8.82
2022-12-28T16:31:38.010Z,10.45
2022-12-28T16:34:14.776Z,9.38
2022-12-28T16:36:42.565Z,10.43
2022-12-28T16:39:15.687Z,11.15
2022-12-28T16:41:42.844Z,9.57
2022-12-28T16:44:21.518Z,11.05
2022-12-28T16:46:49.228Z,11.10
2022-12-28T16:49:17.286Z,11.33
2022-12-28T16:51:46.000Z,10.48
2022-12-28T16:54:18.170Z,9.45
2022-12-28T16:56:47.178Z,9.13
2022-12-28T16:59:18.742Z,11.40
2022-12-28T17:01:46.404Z,11.60
2022-12-28T17:04:13.667Z,10.27
2022-12-28T17:06:41.360Z,10.82
2022-12-28T17:09:08.830Z,12.05
2022-12-28T17:11:35.832Z,12.02
2022-12-28T17:14:04.916Z,10.77
2022-12-28T17:16:32.613Z,10.10
2022-12-28T17:19:00.646Z,9.43
2022-12-28T17:21:30.127Z,9.95
2022-12-28T17:23:57.581Z,7.85
2022-12-28T17:26:24.857Z,10.50
2022-12-28T17:28:51.880Z,9.05
2022-12-28T17:31:21.551Z,10.63
2022-12-28T17:33:51.808Z,11.02
2022-12-28T17:36:52.796Z,10.57
2022-12-28T17:39:19.632Z,10.67
2022-12-28T17:41:46.669Z,9.55
2022-12-28T17:44:13.621Z,9.85
2022-12-28T17:46:40.609Z,9.48
2022-12-28T17:49:11.066Z,9.07
2022-12-28T17:51:38.339Z,7.70
2022-12-28T17:54:05.358Z,9.52
2022-12-28T17:56:32.197Z,10.50
2022-12-28T17:58:59.799Z,10.52
2022-12-28T18:01:27.524Z,12.00
2022-12-28T18:03:55.375Z,13.10
2022-12-28T18:06:22.366Z,14.23
2022-12-28T18:08:49.900Z,11.30
2022-12-28T18:11:17.080Z,13.48
2022-12-28T18:13:46.056Z,11.20
2022-12-28T18:16:15.726Z,11.53
2022-12-28T18:18:43.524Z,14.60
2022-12-28T18:21:21.132Z,13.98
2022-12-28T18:23:50.590Z,13.98
2022-12-28T18:26:22.674Z,11.88
2022-12-28T18:28:50.330Z,12.30
2022-12-28T18:31:17.350Z,11.50
2022-12-28T18:33:44.459Z,10.48
2022-12-28T18:36:17.005Z,13.07
2022-12-28T18:38:45.543Z,11.68
2022-12-28T18:41:14.664Z,14.30
2022-12-28T18:43:41.717Z,13.02
2022-12-28T18:46:10.080Z,11.35
2022-12-28T18:48:38.833Z,14.27
2022-12-28T18:51:06.271Z,15.15
2022-12-28T18:53:33.540Z,14.77
2022-12-28T18:56:03.572Z,11.45
2022-12-28T18:58:38.753Z,14.05
2022-12-28T19:01:40.029Z,17.08
2022-12-28T19:04:04.158Z,19.20
2022-12-28T19:06:31.268Z,14.73
2022-12-28T19:09:01.757Z,13.05
2022-12-28T19:11:29.875Z,15.02
2022-12-28T19:13:57.531Z,19.17
2022-12-28T19:16:30.910Z,15.10
2022-12-28T19:18:59.533Z,14.10
2022-12-28T19:21:35.541Z,16.27
2022-12-28T19:24:19.322Z,14.30
2022-12-28T19:26:50.171Z,12.23
2022-12-28T19:29:38.386Z,13.57
2022-12-28T19:32:05.643Z,12.80
2022-12-28T19:34:32.819Z,12.57
2022-12-28T19:36:59.762Z,9.45
2022-12-28T19:39:26.597Z,11.07
2022-12-28T19:41:53.580Z,11.65
2022-12-28T19:44:20.558Z,11.13
2022-12-28T19:46:48.468Z,15.93
2022-12-28T19:49:15.811Z,18.02
2022-12-28T19:51:42.867Z,17.98
2022-12-28T19:54:11.687Z,16.95
2022-12-28T19:56:38.994Z,18.03
2022-12-28T19:59:07.193Z,17.95
2022-12-28T20:01:36.491Z,17.15
2022-12-28T20:04:10.390Z,15.48
2022-12-28T20:06:40.322Z,14.60
2022-12-28T20:09:07.339Z,16.60
2022-12-28T20:11:34.305Z,15.20
2022-12-28T20:14:03.183Z,23.98
2022-12-28T20:16:32.672Z,18.92
2022-12-28T20:19:13.141Z,21.38
2022-12-28T20:21:40.630Z,15.20
2022-12-28T20:24:08.716Z,13.77
2022-12-28T20:26:35.715Z,15.45
2022-12-28T20:29:03.702Z,14.52
2022-12-28T20:31:30.798Z,14.73
2022-12-28T20:33:58.322Z,13.60
2022-12-28T20:36:28.465Z,14.82
2022-12-28T20:38:57.041Z,15.93
2022-12-28T20:41:29.921Z,15.85
2022-12-28T20:43:56.872Z,14.68
2022-12-28T20:46:23.952Z,12.70
2022-12-28T20:48:51.045Z,13.40
2022-12-28T20:51:18.037Z,11.20
2022-12-28T20:53:45.034Z,10.73
2022-12-28T20:56:12.211Z,9.85
2022-12-28T20:58:39.862Z,10.07
2022-12-28T21:01:09.462Z,10.50
2022-12-28T21:03:37.171Z,11.43
2022-12-28T21:06:05.102Z,9.23
2022-12-28T21:08:32.801Z,9.82
2022-12-28T21:11:00.102Z,10.20
2022-12-28T21:13:27.894Z,11.75
2022-12-28T21:15:55.590Z,10.10
2022-12-28T21:18:23.052Z,10.98
2022-12-28T21:20:52.607Z,10.50
2022-12-28T21:23:19.463Z,16.20
2022-12-28T21:25:46.496Z,18.88
2022-12-28T21:28:13.369Z,21.38
2022-12-28T21:30:40.513Z,17.60
2022-12-28T21:33:10.400Z,14.13
2022-12-28T21:35:37.378Z,13.43
2022-12-28T21:38:05.382Z,14.18
2022-12-28T21:40:32.292Z,20.48
2022-12-28T21:42:59.226Z,21.42
2022-12-28T21:45:26.077Z,18.98
2022-12-28T21:47:53.114Z,18.67
2022-12-28T21:50:19.947Z,16.70
2022-12-28T21:52:46.877Z,15.30
2022-12-28T21:55:13.854Z,15.38
2022-12-28T21:57:40.750Z,17.58
2022-12-28T22:00:08.485Z,18.23
2022-12-28T22:02:35.591Z,15.88
2022-12-28T22:05:04.110Z,16.48
2022-12-28T22:07:32.057Z,16.63
2022-12-28T22:09:59.044Z,18.40
2022-12-28T22:12:27.198Z,20.70
2022-12-28T22:14:54.120Z,21.58
2022-12-28T22:17:21.001Z,22.30
2022-12-28T22:19:47.905Z,22.40
2022-12-28T22:22:14.744Z,20.85
2022-12-28T22:24:41.726Z,20.70
2022-12-28T22:27:08.647Z,20.13
2022-12-28T22:29:35.476Z,22.05
2022-12-28T22:32:02.490Z,20.33
2022-12-28T22:34:31.060Z,16.77
2022-12-28T22:36:57.874Z,22.40
2022-12-28T22:39:24.799Z,18.38
2022-12-28T22:41:51.851Z,19.67
2022-12-28T22:44:18.814Z,22.42
2022-12-28T22:46:45.663Z,24.77
2022-12-28T22:49:12.648Z,22.83
2022-12-28T22:51:39.587Z,18.60
2022-12-28T22:54:06.887Z,22.42
2022-12-28T22:56:33.859Z,21.00
2022-12-28T22:59:04.702Z,17.88
2022-12-28T23:01:32.217Z,16.83
2022-12-28T23:03:59.150Z,16.80
2022-12-28T23:06:26.161Z,16.45
2022-12-28T23:08:53.200Z,21.48
2022-12-28T23:11:20.324Z,22.83
2022-12-28T23:13:47.243Z,19.80
2022-12-28T23:16:14.114Z,17.25
2022-12-28T23:18:41.109Z,19.38
2022-12-28T23:21:23.585Z,21.83
2022-12-28T23:23:50.464Z,19.55
2022-12-28T23:26:17.324Z,16.57
2022-12-28T23:28:44.214Z,15.77
2022-12-28T23:31:11.005Z,21.92
2022-12-28T23:33:37.945Z,21.77
2022-12-28T23:36:05.205Z,16.15
2022-12-28T23:38:33.334Z,16.40
2022-12-28T23:41:04.860Z,20.33
2022-12-28T23:43:31.776Z,19.73
2022-12-28T23:46:02.603Z,20.40
2022-12-28T23:48:29.542Z,20.60
2022-12-28T23:50:56.473Z,21.67
2022-12-28T23:53:23.367Z,21.08
2022-12-28T23:55:50.350Z,21.45
2022-12-28T23:58:17.184Z,18.98
